Time;durP1;ratioP1;P1;durP2;ratioP2;P2;SDS_P1;SDS_P2;PMS_P1;PMS_P2;Temp;Humidity;BMP_temperature;BMP_pressure;BME280_temperature;BME280_humidity;BME280_pressure;Samples;Min_cycle;Max_cycle;Signal;HPM_P1;HPM_P2
2023/08/19 00:00:50;;;;;;;9.07;4.00;;;;;;;;;;5065622;28;20024;-71
2023/08/19 00:03:16;;;;;;;6.65;3.72;;;;;;;;;;5068386;28;20034;-71
2023/08/19 00:05:42;;;;;;;7.43;2.50;;;;;;;;;;5059534;28;20407;-71
2023/08/19 00:08:09;;;;;;;9.23;2.90;;;;;;;;;;5063435;28;20040;-71
2023/08/19 00:10:35;;;;;;;6.88;2.55;;;;;;;;;;5052620;28;20025;-71
2023/08/19 00:13:01;;;;;;;7.68;2.40;;;;;;;;;;5054941;28;20373;-71
2023/08/19 00:15:27;;;;;;;7.40;3.17;;;;;;;;;;5059123;28;20024;-71
2023/08/19 00:17:53;;;;;;;4.65;2.38;;;;;;;;;;5058505;28;20058;-71
2023/08/19 00:20:19;;;;;;;7.93;2.15;;;;;;;;;;5064271;28;20086;-70
2023/08/19 00:22:45;;;;;;;3.97;2.08;;;;;;;;;;5062960;28;20043;-70
2023/08/19 00:25:11;;;;;;;7.75;2.35;;;;;;;;;;5060100;28;20023;-70
2023/08/19 00:27:38;;;;;;;11.27;2.85;;;;;;;;;;5066460;28;20020;-70
2023/08/19 00:30:04;;;;;;;7.07;2.30;;;;;;;;;;5065692;28;20028;-70
2023/08/19 00:32:31;;;;;;;10.93;3.25;;;;;;;;;;5062850;28;20051;-71
2023/08/19 00:34:57;;;;;;;11.30;2.80;;;;;;;;;;5075882;28;20052;-71
2023/08/19 00:37:23;;;;;;;9.55;4.30;;;;;;;;;;5061552;28;20555;-70
2023/08/19 00:39:49;;;;;;;8.63;3.60;;;;;;;;;;5062614;28;20116;-71
2023/08/19 00:42:15;;;;;;;6.75;2.20;;;;;;;;;;5064572;28;20054;-72
2023/08/19 00:44:41;;;;;;;5.00;2.22;;;;;;;;;;5068095;28;20075;-71
2023/08/19 00:47:08;;;;;;;5.78;2.20;;;;;;;;;;5063600;28;20024;-70
2023/08/19 00:49:35;;;;;;;5.32;2.28;;;;;;;;;;5062146;28;20036;-70
2023/08/19 00:52:01;;;;;;;4.65;1.70;;;;;;;;;;5064521;28;20025;-70
2023/08/19 00:54:27;;;;;;;8.80;1.95;;;;;;;;;;5067783;28;20108;-70
2023/08/19 00:56:55;;;;;;;3.38;1.55;;;;;;;;;;5064346;28;20028;-69
2023/08/19 00:59:21;;;;;;;4.70;2.53;;;;;;;;;;5059771;28;20408;-70
2023/08/19 01:01:47;;;;;;;3.78;1.70;;;;;;;;;;5052814;28;20021;-70
2023/08/19 01:04:13;;;;;;;6.05;1.92;;;;;;;;;;5061970;28;20116;-70
2023/08/19 01:06:50;;;;;;;3.65;2.20;;;;;;;;;;5067246;28;20522;-72
2023/08/19 01:09:22;;;;;;;2.00;1.50;;;;;;;;;;5059974;28;20029;-71
2023/08/19 01:11:55;;;;;;;2.25;1.35;;;;;;;;;;5060244;28;20398;-70
2023/08/19 01:14:21;;;;;;;2.72;1.42;;;;;;;;;;5066884;28;20113;-71
2023/08/19 01:16:49;;;;;;;1.77;1.30;;;;;;;;;;5061578;28;20025;-70
2023/08/19 01:19:23;;;;;;;2.72;1.25;;;;;;;;;;5065989;28;20043;-71
2023/08/19 01:21:52;;;;;;;2.72;1.40;;;;;;;;;;5065428;28;20043;-70
2023/08/19 01:24:21;;;;;;;1.25;1.15;;;;;;;;;;5068426;28;20313;-71
2023/08/19 01:26:47;;;;;;;1.00;1.00;;;;;;;;;;5060480;28;20494;-69
2023/08/19 01:29:13;;;;;;;1.30;1.17;;;;;;;;;;5061807;28;20040;-70
2023/08/19 01:31:39;;;;;;;1.33;0.90;;;;;;;;;;5060711;28;20496;-70
2023/08/19 01:34:05;;;;;;;1.17;1.08;;;;;;;;;;5064785;28;20032;-70
2023/08/19 01:36:34;;;;;;;1.77;1.67;;;;;;;;;;5051825;28;20559;-70
2023/08/19 01:39:02;;;;;;;3.75;1.45;;;;;;;;;;5065095;28;20029;-70
2023/08/19 01:41:28;;;;;;;1.30;1.20;;;;;;;;;;5059404;28;20598;-70
2023/08/19 01:43:59;;;;;;;2.05;1.25;;;;;;;;;;5061574;28;20028;-69
2023/08/19 01:46:26;;;;;;;1.77;1.38;;;;;;;;;;5064185;28;20028;-70
2023/08/19 01:48:52;;;;;;;1.83;1.30;;;;;;;;;;5061301;28;20029;-70
2023/08/19 01:51:18;;;;;;;1.63;1.00;;;;;;;;;;5056626;28;20098;-70
2023/08/19 01:53:44;;;;;;;1.38;1.27;;;;;;;;;;5049811;28;20025;-71
2023/08/19 01:56:13;;;;;;;2.15;1.20;;;;;;;;;;5074929;28;20251;-70
2023/08/19 01:58:40;;;;;;;2.95;2.03;;;;;;;;;;5053621;28;20752;-70
2023/08/19 02:01:10;;;;;;;2.83;1.17;;;;;;;;;;5051501;28;20047;-70
2023/08/19 02:03:37;;;;;;;1.70;1.52;;;;;;;;;;5057871;28;20683;-71
2023/08/19 02:06:03;;;;;;;3.42;1.77;;;;;;;;;;5057228;28;20016;-71
2023/08/19 02:08:29;;;;;;;2.80;1.55;;;;;;;;;;5052559;28;20489;-71
2023/08/19 02:10:55;;;;;;;2.63;1.40;;;;;;;;;;5056595;28;20397;-72
2023/08/19 02:13:21;;;;;;;3.97;1.80;;;;;;;;;;5058989;28;20095;-71
2023/08/19 02:15:47;;;;;;;3.38;1.67;;;;;;;;;;5056369;28;20029;-71
2023/08/19 02:18:14;;;;;;;3.67;1.80;;;;;;;;;;5057197;28;20017;-71
2023/08/19 02:20:40;;;;;;;4.85;2.00;;;;;;;;;;5050735;28;20099;-71
2023/08/19 02:23:06;;;;;;;3.42;1.80;;;;;;;;;;5060821;28;20033;-71
2023/08/19 02:25:33;;;;;;;1.30;1.10;;;;;;;;;;5062074;28;20037;-70
2023/08/19 02:27:59;;;;;;;1.05;1.02;;;;;;;;;;5052038;28;20032;-71
2023/08/19 02:30:25;;;;;;;2.05;1.25;;;;;;;;;;5059646;28;20051;-71
2023/08/19 02:32:51;;;;;;;1.95;1.50;;;;;;;;;;5052188;28;20136;-72
2023/08/19 02:35:18;;;;;;;2.30;1.40;;;;;;;;;;5062714;28;20542;-71
2023/08/19 02:37:44;;;;;;;1.75;1.00;;;;;;;;;;5061834;28;20028;-72
2023/08/19 02:40:10;;;;;;;0.90;0.90;;;;;;;;;;5057546;28;20074;-73
2023/08/19 02:42:37;;;;;;;1.38;1.13;;;;;;;;;;5061571;28;20078;-71
2023/08/19 02:45:03;;;;;;;1.13;1.00;;;;;;;;;;5057800;28;20028;-71
2023/08/19 02:47:29;;;;;;;0.80;0.80;;;;;;;;;;5049289;28;20025;-71
2023/08/19 02:49:55;;;;;;;1.92;1.20;;;;;;;;;;5067771;28;20035;-71
2023/08/19 02:52:21;;;;;;;0.90;0.90;;;;;;;;;;5062806;28;20036;-71
2023/08/19 02:54:47;;;;;;;1.73;1.30;;;;;;;;;;5058411;28;20032;-71
2023/08/19 02:57:13;;;;;;;1.02;1.02;;;;;;;;;;5055341;28;20123;-71
2023/08/19 02:59:39;;;;;;;1.10;1.10;;;;;;;;;;5047986;28;20083;-71
2023/08/19 03:02:06;;;;;;;1.08;1.08;;;;;;;;;;5059205;28;20535;-72
2023/08/19 03:04:32;;;;;;;0.80;0.80;;;;;;;;;;5060922;28;20031;-71
2023/08/19 03:06:58;;;;;;;1.10;1.02;;;;;;;;;;5061488;28;20092;-71
2023/08/19 03:09:25;;;;;;;1.00;1.00;;;;;;;;;;5049540;28;20024;-72
2023/08/19 03:11:51;;;;;;;1.10;1.10;;;;;;;;;;5055993;28;20109;-71
2023/08/19 03:14:17;;;;;;;0.88;0.88;;;;;;;;;;5056295;28;20048;-71
2023/08/19 03:16:43;;;;;;;1.00;1.00;;;;;;;;;;5060437;28;20567;-72
2023/08/19 03:19:09;;;;;;;1.02;1.02;;;;;;;;;;5055100;28;20036;-72
2023/08/19 03:21:35;;;;;;;1.27;1.17;;;;;;;;;;5060473;28;20496;-72
2023/08/19 03:24:01;;;;;;;1.77;1.10;;;;;;;;;;5044359;28;20028;-72
2023/08/19 03:26:27;;;;;;;2.25;2.13;;;;;;;;;;5074300;28;20035;-72
2023/08/19 03:28:54;;;;;;;1.42;1.25;;;;;;;;;;5052039;28;20052;-74
2023/08/19 03:31:20;;;;;;;1.13;1.13;;;;;;;;;;5058445;28;20028;-74
2023/08/19 03:33:46;;;;;;;1.70;1.33;;;;;;;;;;5053982;28;20512;-74
2023/08/19 03:36:13;;;;;;;3.83;1.60;;;;;;;;;;5058385;28;20593;-73
2023/08/19 03:38:39;;;;;;;3.28;1.50;;;;;;;;;;5051546;28;20039;-72
2023/08/19 03:41:05;;;;;;;5.03;2.28;;;;;;;;;;5054739;28;20055;-72
2023/08/19 03:43:31;;;;;;;4.85;1.95;;;;;;;;;;5068070;28;20426;-72
2023/08/19 03:45:57;;;;;;;2.85;1.65;;;;;;;;;;5052378;28;20043;-72
2023/08/19 03:48:23;;;;;;;4.30;2.20;;;;;;;;;;5059003;28;20073;-72
2023/08/19 03:50:49;;;;;;;1.83;1.40;;;;;;;;;;5059267;28;20036;-72
2023/08/19 03:53:15;;;;;;;3.03;1.55;;;;;;;;;;5057116;28;20024;-71
2023/08/19 03:55:41;;;;;;;1.77;1.38;;;;;;;;;;5065125;28;20115;-72
2023/08/19 03:58:07;;;;;;;3.28;1.55;;;;;;;;;;5052253;28;20066;-72
2023/08/19 04:00:34;;;;;;;5.45;2.10;;;;;;;;;;5071117;28;20025;-72
2023/08/19 04:03:00;;;;;;;1.40;1.30;;;;;;;;;;5060790;28;20740;-72
2023/08/19 04:05:26;;;;;;;3.58;1.50;;;;;;;;;;5053714;28;20063;-72
2023/08/19 04:07:52;;;;;;;3.30;1.30;;;;;;;;;;5060059;28;20070;-72
2023/08/19 04:10:18;;;;;;;1.10;1.10;;;;;;;;;;5054851;28;20108;-72
2023/08/19 04:12:44;;;;;;;1.40;1.30;;;;;;;;;;5063838;28;20504;-72
2023/08/19 04:15:11;;;;;;;1.25;1.13;;;;;;;;;;5051474;28;20036;-72
2023/08/19 04:17:37;;;;;;;2.35;1.20;;;;;;;;;;5052973;28;20074;-72
2023/08/19 04:20:08;;;;;;;3.33;1.30;;;;;;;;;;5054050;28;20052;-72
2023/08/19 04:22:34;;;;;;;3.83;2.40;;;;;;;;;;5060640;28;20071;-72
2023/08/19 04:25:01;;;;;;;1.98;1.30;;;;;;;;;;5061645;28;20079;-71
2023/08/19 04:27:27;;;;;;;2.30;1.13;;;;;;;;;;5054868;28;20114;-72
2023/08/19 04:29:53;;;;;;;1.85;1.38;;;;;;;;;;5064365;28;20094;-72
2023/08/19 04:32:19;;;;;;;1.80;1.13;;;;;;;;;;5069370;28;20032;-72
2023/08/19 04:34:45;;;;;;;0.93;0.90;;;;;;;;;;5056483;28;20055;-72
2023/08/19 04:37:11;;;;;;;1.10;0.90;;;;;;;;;;5047769;28;20090;-72
2023/08/19 04:39:38;;;;;;;1.15;1.02;;;;;;;;;;5052581;28;20056;-72
2023/08/19 04:42:04;;;;;;;0.93;0.93;;;;;;;;;;5060173;28;20032;-72
2023/08/19 04:44:30;;;;;;;1.38;1.30;;;;;;;;;;5053868;28;20028;-72
2023/08/19 04:46:57;;;;;;;0.98;0.88;;;;;;;;;;5062414;28;20082;-72
2023/08/19 04:49:23;;;;;;;1.55;1.00;;;;;;;;;;5059097;28;20032;-72
2023/08/19 04:51:49;;;;;;;1.17;1.08;;;;;;;;;;5057476;28;20036;-72
2023/08/19 04:54:15;;;;;;;0.98;0.98;;;;;;;;;;5053479;28;20040;-72
2023/08/19 04:56:42;;;;;;;0.80;0.80;;;;;;;;;;5052754;28;20569;-72
2023/08/19 04:59:08;;;;;;;1.27;1.00;;;;;;;;;;5052729;28;20155;-72
2023/08/19 05:01:34;;;;;;;0.73;0.73;;;;;;;;;;5054139;28;20037;-72
2023/08/19 05:04:00;;;;;;;0.90;0.90;;;;;;;;;;5057910;28;20146;-72
2023/08/19 05:06:26;;;;;;;1.10;1.00;;;;;;;;;;5051624;28;20025;-72
2023/08/19 05:08:52;;;;;;;1.00;1.00;;;;;;;;;;5060807;28;20028;-72
2023/08/19 05:11:18;;;;;;;0.82;0.82;;;;;;;;;;5058773;28;20028;-72
2023/08/19 05:13:44;;;;;;;0.90;0.90;;;;;;;;;;5065969;28;20021;-72
2023/08/19 05:16:11;;;;;;;1.55;0.80;;;;;;;;;;5056352;28;20056;-72
2023/08/19 05:18:37;;;;;;;0.75;0.75;;;;;;;;;;5072508;28;20469;-72
2023/08/19 05:21:03;;;;;;;0.90;0.90;;;;;;;;;;5052222;28;20499;-73
2023/08/19 05:23:29;;;;;;;0.90;0.90;;;;;;;;;;5055629;28;20140;-72
2023/08/19 05:25:55;;;;;;;1.42;0.93;;;;;;;;;;5048223;28;20021;-72
2023/08/19 05:28:21;;;;;;;1.40;1.30;;;;;;;;;;5052630;28;20064;-70
2023/08/19 05:30:47;;;;;;;0.90;0.90;;;;;;;;;;5048415;28;20709;-72
2023/08/19 05:33:14;;;;;;;0.80;0.80;;;;;;;;;;5063641;28;20030;-72
2023/08/19 05:35:40;;;;;;;0.88;0.88;;;;;;;;;;5064879;28;20098;-71
2023/08/19 05:38:06;;;;;;;1.08;0.95;;;;;;;;;;5054809;28;20748;-72
2023/08/19 05:40:32;;;;;;;1.00;1.00;;;;;;;;;;5067387;28;20043;-72
2023/08/19 05:42:58;;;;;;;2.58;1.17;;;;;;;;;;5061607;28;20029;-71
2023/08/19 05:45:24;;;;;;;1.23;1.20;;;;;;;;;;5058305;28;20055;-71
2023/08/19 05:47:50;;;;;;;0.75;0.75;;;;;;;;;;5055433;28;20017;-73
2023/08/19 05:50:17;;;;;;;0.70;0.70;;;;;;;;;;5059983;28;20020;-71
2023/08/19 05:52:43;;;;;;;1.23;1.23;;;;;;;;;;5060712;28;20028;-71
2023/08/19 05:55:09;;;;;;;1.80;1.05;;;;;;;;;;5053317;28;20047;-71
2023/08/19 05:57:35;;;;;;;2.25;0.90;;;;;;;;;;5051711;28;20545;-71
2023/08/19 06:00:01;;;;;;;1.00;1.00;;;;;;;;;;5058576;28;20029;-71
2023/08/19 06:02:27;;;;;;;0.93;0.93;;;;;;;;;;5058755;28;20033;-71
2023/08/19 06:04:53;;;;;;;1.95;1.02;;;;;;;;;;5072177;28;20093;-71
2023/08/19 06:07:25;;;;;;;0.95;0.95;;;;;;;;;;5052416;28;20563;-72
2023/08/19 06:09:51;;;;;;;1.75;1.20;;;;;;;;;;5052259;28;20427;-71
2023/08/19 06:12:17;;;;;;;2.05;1.25;;;;;;;;;;5059608;28;20025;-71
2023/08/19 06:14:44;;;;;;;1.65;1.25;;;;;;;;;;5067317;28;20028;-71
2023/08/19 06:17:10;;;;;;;1.00;1.00;;;;;;;;;;5060990;28;20083;-72
2023/08/19 06:19:36;;;;;;;1.20;1.13;;;;;;;;;;5059097;28;20036;-71
2023/08/19 06:22:02;;;;;;;1.10;1.10;;;;;;;;;;5056000;28;20063;-72
2023/08/19 06:24:28;;;;;;;1.48;1.10;;;;;;;;;;5055080;28;20033;-71
2023/08/19 06:26:54;;;;;;;1.77;1.30;;;;;;;;;;5049312;28;20555;-71
2023/08/19 06:29:20;;;;;;;1.48;1.13;;;;;;;;;;5053871;28;20032;-72
2023/08/19 06:31:47;;;;;;;1.90;1.30;;;;;;;;;;5064980;28;20035;-72
2023/08/19 06:34:13;;;;;;;2.47;1.30;;;;;;;;;;5057210;28;20122;-71
2023/08/19 06:36:49;;;;;;;3.33;1.50;;;;;;;;;;5091888;27;20500;-71
2023/08/19 06:39:22;;;;;;;1.67;1.40;;;;;;;;;;5096568;28;20024;-71
2023/08/19 06:41:51;;;;;;;2.15;1.63;;;;;;;;;;5076647;28;20462;-71
2023/08/19 06:44:18;;;;;;;4.30;1.85;;;;;;;;;;5097071;28;20098;-71
2023/08/19 06:46:45;;;;;;;1.70;1.60;;;;;;;;;;5076441;28;20418;-71
2023/08/19 06:49:11;;;;;;;1.65;1.50;;;;;;;;;;5080809;28;20475;-71
2023/08/19 06:51:37;;;;;;;3.08;1.48;;;;;;;;;;5095807;28;20029;-71
2023/08/19 06:54:04;;;;;;;3.45;1.70;;;;;;;;;;5080762;28;20063;-71
2023/08/19 06:56:33;;;;;;;3.17;1.67;;;;;;;;;;5076735;28;20067;-71
2023/08/19 06:59:08;;;;;;;2.13;1.40;;;;;;;;;;5082404;28;20023;-71
2023/08/19 07:01:37;;;;;;;2.08;1.70;;;;;;;;;;5076622;28;20129;-71
2023/08/19 07:04:04;;;;;;;2.50;1.88;;;;;;;;;;5075946;28;20107;-71
2023/08/19 07:06:31;;;;;;;3.95;2.03;;;;;;;;;;5070262;28;20032;-72
2023/08/19 07:09:00;;;;;;;2.30;1.45;;;;;;;;;;5074033;28;20032;-71
2023/08/19 07:11:27;;;;;;;4.72;1.80;;;;;;;;;;5073528;28;20440;-71
2023/08/19 07:13:54;;;;;;;4.68;2.40;;;;;;;;;;5076305;28;20035;-71
2023/08/19 07:16:22;;;;;;;1.75;1.65;;;;;;;;;;5076148;28;20032;-72
2023/08/19 07:18:51;;;;;;;3.75;2.00;;;;;;;;;;5075040;28;20035;-71
2023/08/19 07:21:18;;;;;;;3.30;1.65;;;;;;;;;;5075322;28;20510;-72
2023/08/19 07:23:46;;;;;;;5.85;2.25;;;;;;;;;;5075749;28;20122;-73
2023/08/19 07:26:12;;;;;;;3.42;1.88;;;;;;;;;;5077262;28;20031;-73
2023/08/19 07:28:38;;;;;;;4.80;2.10;;;;;;;;;;5072580;28;20165;-71
2023/08/19 07:31:05;;;;;;;2.33;1.75;;;;;;;;;;5074618;28;20025;-72
2023/08/19 07:33:31;;;;;;;4.75;1.70;;;;;;;;;;5078277;28;20035;-72
2023/08/19 07:35:58;;;;;;;2.28;1.80;;;;;;;;;;5072045;28;20056;-72
2023/08/19 07:38:24;;;;;;;3.15;1.85;;;;;;;;;;5078425;28;20031;-72
2023/08/19 07:40:50;;;;;;;3.20;1.85;;;;;;;;;;5078343;28;20028;-73
2023/08/19 07:43:16;;;;;;;2.35;1.63;;;;;;;;;;5073441;28;20035;-72
2023/08/19 07:45:42;;;;;;;3.45;2.15;;;;;;;;;;5071170;28;20036;-71
2023/08/19 07:48:09;;;;;;;3.85;1.80;;;;;;;;;;5060051;28;20392;-71
2023/08/19 07:50:35;;;;;;;2.40;1.50;;;;;;;;;;5060181;28;20033;-72
2023/08/19 07:53:01;;;;;;;4.15;1.90;;;;;;;;;;5061999;28;20514;-72
2023/08/19 07:55:27;;;;;;;3.00;1.80;;;;;;;;;;5064221;28;20031;-71
2023/08/19 07:57:53;;;;;;;1.80;1.70;;;;;;;;;;5058033;28;20175;-71
2023/08/19 08:00:21;;;;;;;4.70;2.03;;;;;;;;;;5075565;28;20028;-71
2023/08/19 08:02:48;;;;;;;1.75;1.40;;;;;;;;;;5059964;28;20020;-71
2023/08/19 08:05:14;;;;;;;4.13;1.58;;;;;;;;;;5062601;28;20484;-72
2023/08/19 08:07:40;;;;;;;2.72;1.55;;;;;;;;;;5058379;28;20514;-71
2023/08/19 08:10:06;;;;;;;1.63;1.40;;;;;;;;;;5079989;28;20048;-72
2023/08/19 08:12:32;;;;;;;2.60;1.63;;;;;;;;;;5061540;28;20493;-72
2023/08/19 08:14:59;;;;;;;7.40;1.83;;;;;;;;;;5062353;28;20059;-73
2023/08/19 08:17:25;;;;;;;3.60;1.63;;;;;;;;;;5060995;28;20600;-74
2023/08/19 08:19:51;;;;;;;2.78;1.83;;;;;;;;;;5058775;28;20037;-73
2023/08/19 08:22:18;;;;;;;2.63;2.17;;;;;;;;;;5057056;28;20032;-73
2023/08/19 08:24:44;;;;;;;3.65;2.13;;;;;;;;;;5065101;28;20070;-72
2023/08/19 08:27:10;;;;;;;3.65;2.00;;;;;;;;;;5058543;28;20538;-73
2023/08/19 08:29:36;;;;;;;3.90;2.35;;;;;;;;;;5052997;28;20043;-72
2023/08/19 08:32:02;;;;;;;4.00;3.00;;;;;;;;;;5061875;28;20037;-72
2023/08/19 08:34:29;;;;;;;2.83;2.35;;;;;;;;;;5061573;28;20123;-72
2023/08/19 08:36:55;;;;;;;9.63;2.58;;;;;;;;;;5063020;28;20024;-72
2023/08/19 08:39:21;;;;;;;3.60;2.15;;;;;;;;;;5061877;28;20104;-71
2023/08/19 08:41:47;;;;;;;3.00;1.85;;;;;;;;;;5061170;28;20032;-72
2023/08/19 08:44:14;;;;;;;3.83;1.92;;;;;;;;;;5074621;28;20495;-72
2023/08/19 08:46:40;;;;;;;4.78;2.10;;;;;;;;;;5061500;28;20056;-71
2023/08/19 08:49:06;;;;;;;2.25;1.80;;;;;;;;;;5060775;28;20025;-72
2023/08/19 08:51:32;;;;;;;3.38;1.92;;;;;;;;;;5061720;28;20488;-73
2023/08/19 08:54:00;;;;;;;2.60;1.77;;;;;;;;;;5060589;28;20032;-72
2023/08/19 08:56:26;;;;;;;3.83;2.13;;;;;;;;;;5060821;28;20532;-73
2023/08/19 08:58:52;;;;;;;2.78;1.70;;;;;;;;;;5059533;28;21112;-72
2023/08/19 09:01:22;;;;;;;2.65;1.70;;;;;;;;;;5075099;28;20119;-73
2023/08/19 09:03:51;;;;;;;2.95;1.88;;;;;;;;;;5061320;28;20547;-72
2023/08/19 09:06:17;;;;;;;3.85;1.90;;;;;;;;;;5058114;28;20036;-73
2023/08/19 09:08:48;;;;;;;5.75;2.33;;;;;;;;;;5065586;28;20035;-72
2023/08/19 09:11:17;;;;;;;3.65;2.38;;;;;;;;;;5058279;28;20426;-72
2023/08/19 09:13:44;;;;;;;3.92;2.60;;;;;;;;;;5057886;28;20037;-72
2023/08/19 09:16:11;;;;;;;3.58;2.30;;;;;;;;;;5057913;28;20027;-72
2023/08/19 09:18:41;;;;;;;6.18;3.17;;;;;;;;;;5065462;28;20676;-72
2023/08/19 09:21:08;;;;;;;4.30;3.75;;;;;;;;;;5055395;28;20028;-73
2023/08/19 09:23:34;;;;;;;7.65;4.18;;;;;;;;;;5077038;28;20028;-72
2023/08/19 09:26:01;;;;;;;8.05;4.18;;;;;;;;;;5054415;28;21042;-72
2023/08/19 09:28:27;;;;;;;6.85;3.70;;;;;;;;;;5053865;28;20032;-72
2023/08/19 09:30:53;;;;;;;4.80;2.55;;;;;;;;;;5057855;28;20054;-72
2023/08/19 09:33:20;;;;;;;5.22;2.65;;;;;;;;;;5050796;28;20064;-72
2023/08/19 09:35:47;;;;;;;3.90;2.50;;;;;;;;;;5056231;28;20044;-72
2023/08/19 09:38:20;;;;;;;5.90;2.28;;;;;;;;;;5056632;28;20432;-72
2023/08/19 09:40:57;;;;;;;3.28;2.15;;;;;;;;;;5057114;28;20032;-72
2023/08/19 09:43:23;;;;;;;4.25;2.53;;;;;;;;;;5052929;28;20017;-72
2023/08/19 09:45:49;;;;;;;5.90;2.13;;;;;;;;;;5052940;28;20534;-72
2023/08/19 09:48:15;;;;;;;3.88;2.30;;;;;;;;;;5077048;28;20032;-73
2023/08/19 09:50:45;;;;;;;3.70;2.10;;;;;;;;;;5062873;28;20104;-72
2023/08/19 09:53:14;;;;;;;3.60;1.90;;;;;;;;;;5055626;28;20028;-73
2023/08/19 09:55:44;;;;;;;4.47;2.10;;;;;;;;;;5056288;28;20114;-75
2023/08/19 09:58:10;;;;;;;2.63;1.88;;;;;;;;;;5055973;28;20469;-70
2023/08/19 10:00:37;;;;;;;2.10;1.90;;;;;;;;;;5057468;28;20021;-72
2023/08/19 10:03:03;;;;;;;2.13;1.83;;;;;;;;;;5057025;28;20024;-73
2023/08/19 10:05:32;;;;;;;6.05;2.35;;;;;;;;;;5066813;28;20103;-72
2023/08/19 10:08:03;;;;;;;2.63;2.00;;;;;;;;;;5069901;28;20025;-71
2023/08/19 10:10:32;;;;;;;3.53;2.30;;;;;;;;;;5056404;28;20044;-73
2023/08/19 10:13:01;;;;;;;2.42;2.03;;;;;;;;;;5050987;28;20953;-74
2023/08/19 10:15:27;;;;;;;3.90;2.38;;;;;;;;;;5061630;28;20086;-74
2023/08/19 10:17:56;;;;;;;4.35;2.10;;;;;;;;;;5055059;28;20021;-74
2023/08/19 10:20:24;;;;;;;1.92;1.70;;;;;;;;;;5054295;28;20032;-74
2023/08/19 10:22:53;;;;;;;4.22;2.17;;;;;;;;;;5072395;28;20042;-75
2023/08/19 10:25:20;;;;;;;3.03;2.00;;;;;;;;;;5056736;28;20034;-74
2023/08/19 10:27:46;;;;;;;3.90;1.80;;;;;;;;;;5066914;28;20025;-74
2023/08/19 10:30:24;;;;;;;2.70;1.50;;;;;;;;;;5053060;28;20515;-74
2023/08/19 10:32:51;;;;;;;2.67;1.83;;;;;;;;;;5055205;28;20028;-74
2023/08/19 10:35:17;;;;;;;4.05;1.88;;;;;;;;;;5049935;28;20138;-74
2023/08/19 10:37:45;;;;;;;2.40;2.00;;;;;;;;;;5054482;28;20464;-73
2023/08/19 10:40:12;;;;;;;2.45;1.52;;;;;;;;;;5057958;28;20028;-74
2023/08/19 10:42:39;;;;;;;3.28;1.80;;;;;;;;;;5057369;28;20029;-74
2023/08/19 10:45:25;;;;;;;3.90;1.85;;;;;;;;;;5058171;28;20048;-74
2023/08/19 10:47:55;;;;;;;4.68;2.60;;;;;;;;;;5048730;28;20593;-75
2023/08/19 10:50:21;;;;;;;3.17;1.67;;;;;;;;;;5058766;28;20025;-75
2023/08/19 10:53:00;;;;;;;3.30;2.17;;;;;;;;;;5054896;28;20071;-76
2023/08/19 10:55:26;;;;;;;2.47;1.70;;;;;;;;;;5052133;28;20175;-75
2023/08/19 10:57:53;;;;;;;2.17;1.90;;;;;;;;;;5054065;28;20032;-74
2023/08/19 11:00:23;;;;;;;2.95;1.80;;;;;;;;;;5049855;28;20028;-75
2023/08/19 11:02:50;;;;;;;4.25;2.05;;;;;;;;;;5055002;28;20029;-75
2023/08/19 11:05:34;;;;;;;5.82;2.03;;;;;;;;;;5052987;28;20021;-74
2023/08/19 11:08:00;;;;;;;5.90;1.98;;;;;;;;;;5052566;28;20064;-75
2023/08/19 11:10:32;;;;;;;3.35;2.13;;;;;;;;;;5051015;28;20032;-75
2023/08/19 11:13:00;;;;;;;3.90;1.85;;;;;;;;;;5054298;28;20085;-76
2023/08/19 11:15:26;;;;;;;2.75;1.80;;;;;;;;;;5054113;28;20067;-75
2023/08/19 11:17:52;;;;;;;2.50;1.85;;;;;;;;;;5050690;28;20455;-75
2023/08/19 11:20:19;;;;;;;2.78;2.00;;;;;;;;;;5055465;28;20033;-76
2023/08/19 11:22:49;;;;;;;3.95;1.90;;;;;;;;;;5054166;28;20048;-73
2023/08/19 11:25:15;;;;;;;2.60;1.70;;;;;;;;;;5056398;28;20381;-73
2023/08/19 11:27:42;;;;;;;3.58;2.00;;;;;;;;;;5056065;28;20024;-72
2023/08/19 11:30:11;;;;;;;2.33;1.60;;;;;;;;;;5057774;28;20479;-73
2023/08/19 11:32:38;;;;;;;2.72;1.70;;;;;;;;;;5055289;28;20050;-73
2023/08/19 11:35:04;;;;;;;2.33;1.48;;;;;;;;;;5047061;28;20048;-73
2023/08/19 11:37:30;;;;;;;5.22;1.60;;;;;;;;;;5053616;28;20036;-74
2023/08/19 11:39:57;;;;;;;1.92;1.48;;;;;;;;;;5056519;28;20028;-73
2023/08/19 11:42:26;;;;;;;4.00;1.70;;;;;;;;;;5055646;28;20056;-73
2023/08/19 11:44:52;;;;;;;4.00;1.77;;;;;;;;;;5061410;28;20052;-74
2023/08/19 11:47:19;;;;;;;3.60;1.60;;;;;;;;;;5056630;28;20104;-73
2023/08/19 11:49:45;;;;;;;3.13;2.22;;;;;;;;;;5068923;28;20527;-73
2023/08/19 11:52:18;;;;;;;1.83;1.58;;;;;;;;;;5059404;28;20028;-73
2023/08/19 11:54:57;;;;;;;2.65;2.25;;;;;;;;;;5058414;28;20035;-73
2023/08/19 11:57:23;;;;;;;2.97;1.80;;;;;;;;;;5075995;28;20097;-74
2023/08/19 11:59:49;;;;;;;3.78;1.90;;;;;;;;;;5071566;28;20032;-73
2023/08/19 12:02:15;;;;;;;3.97;2.17;;;;;;;;;;5061742;28;20639;-73
2023/08/19 12:04:41;;;;;;;1.50;1.40;;;;;;;;;;5057968;28;20033;-74
2023/08/19 12:07:12;;;;;;;3.50;1.92;;;;;;;;;;5059160;28;20035;-74
2023/08/19 12:09:40;;;;;;;1.75;1.52;;;;;;;;;;5071324;28;20024;-73
2023/08/19 12:12:10;;;;;;;2.47;1.50;;;;;;;;;;5059408;28;20032;-73
2023/08/19 12:14:37;;;;;;;1.60;1.50;;;;;;;;;;5069363;28;20385;-74
2023/08/19 12:17:04;;;;;;;4.60;1.65;;;;;;;;;;5058883;28;20028;-73
2023/08/19 12:19:30;;;;;;;2.60;1.80;;;;;;;;;;5064477;28;20090;-73
2023/08/19 12:21:57;;;;;;;2.67;1.65;;;;;;;;;;5057801;28;20024;-73
2023/08/19 12:24:25;;;;;;;4.28;2.20;;;;;;;;;;5054595;28;20021;-73
2023/08/19 12:26:51;;;;;;;3.35;1.60;;;;;;;;;;5060586;28;20059;-72
2023/08/19 12:29:17;;;;;;;3.22;1.50;;;;;;;;;;5058258;28;20440;-72
2023/08/19 12:31:43;;;;;;;6.47;1.50;;;;;;;;;;5059488;28;20113;-73
2023/08/19 12:34:09;;;;;;;3.13;1.40;;;;;;;;;;5071402;28;20032;-72
2023/08/19 12:36:36;;;;;;;1.55;1.40;;;;;;;;;;5056553;28;20110;-74
2023/08/19 12:39:04;;;;;;;2.13;1.60;;;;;;;;;;5060516;28;20055;-73
2023/08/19 12:41:30;;;;;;;2.17;1.48;;;;;;;;;;5057815;28;20024;-73
2023/08/19 12:43:56;;;;;;;3.03;1.63;;;;;;;;;;5060024;28;20055;-74
2023/08/19 12:46:22;;;;;;;4.25;1.73;;;;;;;;;;5054817;28;20032;-73
2023/08/19 12:48:48;;;;;;;3.35;1.60;;;;;;;;;;5060136;28;21046;-72
2023/08/19 12:51:17;;;;;;;3.88;1.63;;;;;;;;;;5058789;28;20057;-72
2023/08/19 12:53:43;;;;;;;2.53;1.77;;;;;;;;;;5055630;28;20071;-72
2023/08/19 12:56:09;;;;;;;3.60;1.70;;;;;;;;;;5063318;28;20055;-72
2023/08/19 12:58:35;;;;;;;3.70;1.88;;;;;;;;;;5056220;28;20032;-73
2023/08/19 13:01:02;;;;;;;2.40;1.92;;;;;;;;;;5060594;28;20116;-72
2023/08/19 13:03:29;;;;;;;3.22;1.70;;;;;;;;;;5075278;28;20024;-72
2023/08/19 13:05:55;;;;;;;3.20;1.40;;;;;;;;;;5057055;28;20103;-71
2023/08/19 13:08:21;;;;;;;2.67;1.60;;;;;;;;;;5058988;28;20067;-71
2023/08/19 13:10:47;;;;;;;2.22;1.67;;;;;;;;;;5058459;28;20086;-71
2023/08/19 13:13:13;;;;;;;5.90;1.58;;;;;;;;;;5060137;28;20437;-71
2023/08/19 13:15:39;;;;;;;4.72;1.90;;;;;;;;;;5053558;28;20337;-71
2023/08/19 13:18:06;;;;;;;5.18;2.28;;;;;;;;;;5062402;28;20032;-71
2023/08/19 13:20:32;;;;;;;3.38;1.45;;;;;;;;;;5067522;28;20050;-72
2023/08/19 13:22:58;;;;;;;2.42;1.60;;;;;;;;;;5060115;28;20120;-71
2023/08/19 13:25:27;;;;;;;4.22;1.42;;;;;;;;;;5058371;28;20028;-73
2023/08/19 13:27:53;;;;;;;1.85;1.38;;;;;;;;;;5056841;28;20621;-73
2023/08/19 13:30:19;;;;;;;2.55;1.52;;;;;;;;;;5055631;28;20033;-73
2023/08/19 13:32:45;;;;;;;4.22;1.83;;;;;;;;;;5056026;28;20036;-73
2023/08/19 13:35:12;;;;;;;2.92;1.70;;;;;;;;;;5055423;28;20522;-72
2023/08/19 13:37:38;;;;;;;3.95;2.00;;;;;;;;;;5057178;28;20674;-73
2023/08/19 13:40:05;;;;;;;2.40;1.80;;;;;;;;;;5055079;28;20024;-73
2023/08/19 13:42:32;;;;;;;2.75;1.75;;;;;;;;;;5055549;28;20507;-74
2023/08/19 13:44:58;;;;;;;3.53;1.85;;;;;;;;;;5058579;28;20392;-74
2023/08/19 13:47:24;;;;;;;3.88;2.00;;;;;;;;;;5056355;28;20032;-74
2023/08/19 13:49:50;;;;;;;1.80;1.55;;;;;;;;;;5072032;28;20032;-73
2023/08/19 13:52:55;;;;;;;4.63;1.70;;;;;;;;;;5058056;28;20032;-73
2023/08/19 13:55:22;;;;;;;2.35;1.73;;;;;;;;;;5052260;28;20036;-73
2023/08/19 13:57:48;;;;;;;2.85;1.90;;;;;;;;;;5055770;28;20070;-73
2023/08/19 14:00:16;;;;;;;4.05;1.70;;;;;;;;;;5054440;28;20079;-73
2023/08/19 14:02:43;;;;;;;3.47;1.90;;;;;;;;;;5056981;28;20494;-73
2023/08/19 14:05:12;;;;;;;5.05;1.70;;;;;;;;;;5055801;28;21066;-73
2023/08/19 14:07:38;;;;;;;2.72;1.45;;;;;;;;;;5053812;28;20051;-74
2023/08/19 14:10:04;;;;;;;4.60;1.55;;;;;;;;;;5053391;28;20028;-74
2023/08/19 14:12:31;;;;;;;3.72;1.70;;;;;;;;;;5050683;28;20060;-72
2023/08/19 14:14:57;;;;;;;4.13;1.95;;;;;;;;;;5056708;28;20082;-74
2023/08/19 14:17:23;;;;;;;3.45;2.65;;;;;;;;;;5052255;28;20086;-73
2023/08/19 14:19:49;;;;;;;5.03;2.03;;;;;;;;;;5068700;28;20396;-73
2023/08/19 14:22:15;;;;;;;4.28;1.75;;;;;;;;;;5060002;28;20483;-73
2023/08/19 14:24:41;;;;;;;2.17;1.58;;;;;;;;;;5054371;28;20048;-73
2023/08/19 14:27:07;;;;;;;3.25;1.90;;;;;;;;;;5051130;28;20039;-73
2023/08/19 14:29:33;;;;;;;4.32;1.80;;;;;;;;;;5055984;28;20033;-72
2023/08/19 14:32:00;;;;;;;3.47;2.13;;;;;;;;;;5054312;28;20571;-74
2023/08/19 14:34:26;;;;;;;3.05;1.90;;;;;;;;;;5053273;28;20548;-71
2023/08/19 14:36:52;;;;;;;4.78;1.80;;;;;;;;;;5055534;28;20171;-73
2023/08/19 14:39:19;;;;;;;4.07;1.73;;;;;;;;;;5057556;28;20112;-73
2023/08/19 14:41:45;;;;;;;4.28;2.55;;;;;;;;;;5052700;28;20500;-75